Accueil
METAR-TAF:

METAR-TAF

Aéroports :

Île Christmas, Kiribati

Aéroport international Cassidy

latitude: 01-59N, longitude: 157-29W, altitude: 3 m

Observation

Le bulletin a été fait il y a 27 minutes, à 22:00 UTC
Vent 8 kt de sud-est
Température 30°C
Humidité 66%
Pression 1012 hPa
Visibilité 10 km ou plus
Quelques nuages à une hauteur de 2000 ft

METAR: PLCH 232200Z 14008KT 9999 FEW020 30/23 Q1012

Heure: 12:27 (22:27 UTC)

Prévision

Le bulletin a été fait il y a 5 heures et 23 minutes, à 17:04 UTC
Prévision valable du 23 à 18 UTC au 24 à 18 UTC
Vent 8 kt de sud/sud-est
Visibilité 10 km ou plus
Nuages épars à une hauteur de 2000 ft
Nuages fragmentés à une hauteur de 4000 ft

TAF: PLCH 231704Z 2318/2418 15008KT 9999 SCT020 BKN040

Observations et prévisions météorologiques de plus de 4000 aéroports (messages METAR et TAF).

Les stations disponibles sont représentées par des disques jaunes et rouges sur la carte.

Passer la souris dessus pour voir le nom de la station.

Cliquer dessus pour voir les observations et prévisions météorologiques.

Pour changer de carte: cliquez sur les boutons verts avec une croix noire pour zoomer, sur le bouton vert avec un tiret pour effectuer un zoom arrière, ou sur les flèches vertes pour les cartes adjacentes.


METAR-TAF: